sensor_id;sensor_type;location;lat;lon;timestamp;pressure;altitude;pressure_sealevel;temperature;humidity
28004;BME280;15330;51.234;6.754;2023-03-20T00:00:54;101471.06;;;9.63;100.00
28004;BME280;15330;51.234;6.754;2023-03-20T00:03:19;101482.00;;;9.79;100.00
28004;BME280;15330;51.234;6.754;2023-03-20T00:05:45;101491.56;;;9.82;100.00
28004;BME280;15330;51.234;6.754;2023-03-20T00:08:10;101483.97;;;9.39;100.00
28004;BME280;15330;51.234;6.754;2023-03-20T00:10:44;101484.81;;;9.39;100.00
28004;BME280;15330;51.234;6.754;2023-03-20T00:13:29;101495.66;;;9.57;100.00
28004;BME280;15330;51.234;6.754;2023-03-20T00:15:54;101487.34;;;9.31;100.00
28004;BME280;15330;51.234;6.754;2023-03-20T00:18:22;101499.41;;;9.35;100.00
28004;BME280;15330;51.234;6.754;2023-03-20T00:20:49;101494.66;;;9.48;100.00
28004;BME280;15330;51.234;6.754;2023-03-20T00:23:16;101494.53;;;9.60;100.00
28004;BME280;15330;51.234;6.754;2023-03-20T00:25:43;101497.47;;;9.66;100.00
28004;BME280;15330;51.234;6.754;2023-03-20T00:28:36;101502.13;;;9.74;100.00
28004;BME280;15330;51.234;6.754;2023-03-20T00:31:04;101500.28;;;9.45;100.00
28004;BME280;15330;51.234;6.754;2023-03-20T00:33:30;101499.47;;;9.54;100.00
28004;BME280;15330;51.234;6.754;2023-03-20T00:35:55;101489.75;;;9.63;100.00
28004;BME280;15330;51.234;6.754;2023-03-20T00:38:23;101494.94;;;9.45;100.00
28004;BME280;15330;51.234;6.754;2023-03-20T00:40:48;101502.53;;;9.69;100.00
28004;BME280;15330;51.234;6.754;2023-03-20T00:43:14;101502.28;;;9.72;100.00
28004;BME280;15330;51.234;6.754;2023-03-20T00:45:41;101500.00;;;9.68;100.00
28004;BME280;15330;51.234;6.754;2023-03-20T00:48:13;101508.31;;;9.74;100.00
28004;BME280;15330;51.234;6.754;2023-03-20T00:50:39;101506.75;;;9.91;100.00
28004;BME280;15330;51.234;6.754;2023-03-20T00:53:07;101510.41;;;9.90;100.00
28004;BME280;15330;51.234;6.754;2023-03-20T00:55:33;101491.84;;;9.88;99.91
28004;BME280;15330;51.234;6.754;2023-03-20T00:58:03;101490.03;;;9.70;100.00
28004;BME280;15330;51.234;6.754;2023-03-20T01:00:42;101482.28;;;9.67;100.00
28004;BME280;15330;51.234;6.754;2023-03-20T01:05:43;101484.28;;;9.74;100.00
28004;BME280;15330;51.234;6.754;2023-03-20T01:08:14;101486.97;;;9.65;100.00
28004;BME280;15330;51.234;6.754;2023-03-20T01:10:40;101474.56;;;9.73;100.00
28004;BME280;15330;51.234;6.754;2023-03-20T01:13:31;101470.47;;;9.79;100.00
28004;BME280;15330;51.234;6.754;2023-03-20T01:15:57;101475.13;;;9.77;100.00
28004;BME280;15330;51.234;6.754;2023-03-20T01:18:25;101472.44;;;9.77;100.00
28004;BME280;15330;51.234;6.754;2023-03-20T01:20:51;101471.34;;;9.70;100.00
28004;BME280;15330;51.234;6.754;2023-03-20T01:23:18;101473.28;;;9.68;100.00
28004;BME280;15330;51.234;6.754;2023-03-20T01:25:44;101474.28;;;9.67;100.00
28004;BME280;15330;51.234;6.754;2023-03-20T01:28:18;101465.84;;;9.71;100.00
28004;BME280;15330;51.234;6.754;2023-03-20T01:30:44;101459.38;;;9.83;100.00
28004;BME280;15330;51.234;6.754;2023-03-20T01:33:21;101462.16;;;9.91;100.00
28004;BME280;15330;51.234;6.754;2023-03-20T01:35:48;101465.44;;;9.76;100.00
28004;BME280;15330;51.234;6.754;2023-03-20T01:38:19;101462.47;;;9.79;99.92
28004;BME280;15330;51.234;6.754;2023-03-20T01:40:55;101457.56;;;9.55;100.00
28004;BME280;15330;51.234;6.754;2023-03-20T01:43:24;101446.59;;;9.39;100.00
28004;BME280;15330;51.234;6.754;2023-03-20T01:51:26;101454.91;;;9.55;100.00
28004;BME280;15330;51.234;6.754;2023-03-20T01:54:08;101453.34;;;9.62;100.00
28004;BME280;15330;51.234;6.754;2023-03-20T01:59:25;101457.13;;;9.69;100.00
28004;BME280;15330;51.234;6.754;2023-03-20T02:01:53;101463.19;;;9.62;100.00
28004;BME280;15330;51.234;6.754;2023-03-20T02:04:21;101466.25;;;9.57;100.00
28004;BME280;15330;51.234;6.754;2023-03-20T02:06:48;101476.28;;;9.55;100.00
28004;BME280;15330;51.234;6.754;2023-03-20T02:09:14;101476.25;;;9.45;100.00
28004;BME280;15330;51.234;6.754;2023-03-20T02:11:41;101480.06;;;9.43;100.00
28004;BME280;15330;51.234;6.754;2023-03-20T02:14:08;101481.75;;;9.34;100.00
28004;BME280;15330;51.234;6.754;2023-03-20T02:16:34;101473.16;;;9.40;100.00
28004;BME280;15330;51.234;6.754;2023-03-20T02:19:00;101476.69;;;9.50;100.00
28004;BME280;15330;51.234;6.754;2023-03-20T02:27:38;101463.72;;;9.36;100.00
28004;BME280;15330;51.234;6.754;2023-03-20T02:30:20;101464.44;;;9.38;100.00
28004;BME280;15330;51.234;6.754;2023-03-20T02:35:58;101460.06;;;9.18;100.00
28004;BME280;15330;51.234;6.754;2023-03-20T02:44:37;101464.56;;;9.27;100.00
28004;BME280;15330;51.234;6.754;2023-03-20T02:46:59;101473.56;;;9.26;100.00
28004;BME280;15330;51.234;6.754;2023-03-20T02:52:17;101474.53;;;9.35;100.00
28004;BME280;15330;51.234;6.754;2023-03-20T02:54:53;101473.16;;;9.31;100.00
28004;BME280;15330;51.234;6.754;2023-03-20T02:57:40;101466.69;;;9.24;100.00
28004;BME280;15330;51.234;6.754;2023-03-20T03:00:17;101469.63;;;9.30;100.00
28004;BME280;15330;51.234;6.754;2023-03-20T03:03:16;101475.25;;;9.37;100.00
28004;BME280;15330;51.234;6.754;2023-03-20T03:05:43;101471.72;;;9.27;100.00
28004;BME280;15330;51.234;6.754;2023-03-20T03:08:12;101483.47;;;9.05;100.00
28004;BME280;15330;51.234;6.754;2023-03-20T03:10:53;101485.19;;;9.15;100.00
28004;BME280;15330;51.234;6.754;2023-03-20T03:13:25;101476.69;;;8.81;100.00
28004;BME280;15330;51.234;6.754;2023-03-20T03:15:54;101478.78;;;8.78;100.00
28004;BME280;15330;51.234;6.754;2023-03-20T03:18:26;101465.00;;;9.13;100.00
28004;BME280;15330;51.234;6.754;2023-03-20T03:20:55;101451.44;;;8.95;100.00
28004;BME280;15330;51.234;6.754;2023-03-20T03:23:30;101436.91;;;8.59;100.00
28004;BME280;15330;51.234;6.754;2023-03-20T03:25:57;101445.66;;;8.40;100.00
28004;BME280;15330;51.234;6.754;2023-03-20T03:31:02;101445.56;;;8.92;100.00
28004;BME280;15330;51.234;6.754;2023-03-20T03:33:30;101457.38;;;9.08;100.00
28004;BME280;15330;51.234;6.754;2023-03-20T03:36:12;101456.81;;;9.14;100.00
28004;BME280;15330;51.234;6.754;2023-03-20T03:44:27;101479.00;;;9.05;100.00
28004;BME280;15330;51.234;6.754;2023-03-20T03:47:03;101481.66;;;9.05;100.00
28004;BME280;15330;51.234;6.754;2023-03-20T03:49:37;101471.28;;;9.02;100.00
28004;BME280;15330;51.234;6.754;2023-03-20T03:52:15;101467.31;;;8.87;100.00
28004;BME280;15330;51.234;6.754;2023-03-20T03:54:44;101469.00;;;8.88;100.00
28004;BME280;15330;51.234;6.754;2023-03-20T03:57:14;101480.50;;;8.89;100.00
28004;BME280;15330;51.234;6.754;2023-03-20T03:59:48;101475.31;;;8.87;100.00
28004;BME280;15330;51.234;6.754;2023-03-20T04:02:16;101470.13;;;9.05;100.00
28004;BME280;15330;51.234;6.754;2023-03-20T04:04:45;101470.41;;;8.92;100.00
28004;BME280;15330;51.234;6.754;2023-03-20T04:07:14;101461.38;;;8.83;99.34
28004;BME280;15330;51.234;6.754;2023-03-20T04:09:40;101487.91;;;8.75;99.84
28004;BME280;15330;51.234;6.754;2023-03-20T04:14:52;101484.22;;;8.67;100.00
28004;BME280;15330;51.234;6.754;2023-03-20T04:17:17;101476.38;;;8.75;99.19
28004;BME280;15330;51.234;6.754;2023-03-20T04:19:42;101470.91;;;8.76;98.73
28004;BME280;15330;51.234;6.754;2023-03-20T04:22:08;101460.72;;;8.51;100.00
28004;BME280;15330;51.234;6.754;2023-03-20T04:24:33;101461.19;;;8.66;100.00
28004;BME280;15330;51.234;6.754;2023-03-20T04:26:58;101454.34;;;8.42;100.00
28004;BME280;15330;51.234;6.754;2023-03-20T04:29:24;101451.88;;;8.51;100.00
28004;BME280;15330;51.234;6.754;2023-03-20T04:31:50;101443.38;;;8.36;100.00
28004;BME280;15330;51.234;6.754;2023-03-20T04:34:15;101448.22;;;8.52;100.00
28004;BME280;15330;51.234;6.754;2023-03-20T04:36:42;101449.47;;;8.48;100.00
28004;BME280;15330;51.234;6.754;2023-03-20T04:39:07;101453.03;;;8.58;99.99
28004;BME280;15330;51.234;6.754;2023-03-20T04:41:32;101453.28;;;8.55;99.85
28004;BME280;15330;51.234;6.754;2023-03-20T04:43:58;101458.63;;;8.55;100.00
28004;BME280;15330;51.234;6.754;2023-03-20T04:46:23;101450.47;;;8.26;100.00
28004;BME280;15330;51.234;6.754;2023-03-20T04:48:49;101449.88;;;8.43;100.00
28004;BME280;15330;51.234;6.754;2023-03-20T04:51:14;101461.91;;;8.37;100.00
28004;BME280;15330;51.234;6.754;2023-03-20T04:53:39;101461.06;;;8.37;99.79
28004;BME280;15330;51.234;6.754;2023-03-20T04:56:05;101460.81;;;8.40;100.00
28004;BME280;15330;51.234;6.754;2023-03-20T04:58:31;101456.75;;;8.45;99.81
28004;BME280;15330;51.234;6.754;2023-03-20T05:00:56;101451.56;;;8.23;100.00
28004;BME280;15330;51.234;6.754;2023-03-20T05:03:21;101452.28;;;8.25;100.00
28004;BME280;15330;51.234;6.754;2023-03-20T05:05:47;101452.63;;;8.32;100.00
28004;BME280;15330;51.234;6.754;2023-03-20T05:08:12;101447.88;;;8.15;99.89
28004;BME280;15330;51.234;6.754;2023-03-20T05:10:38;101458.47;;;8.26;100.00
28004;BME280;15330;51.234;6.754;2023-03-20T05:13:03;101458.09;;;8.09;100.00
28004;BME280;15330;51.234;6.754;2023-03-20T05:15:29;101451.19;;;8.28;100.00
28004;BME280;15330;51.234;6.754;2023-03-20T05:17:54;101447.50;;;8.19;100.00
28004;BME280;15330;51.234;6.754;2023-03-20T05:20:20;101448.78;;;8.25;100.00
28004;BME280;15330;51.234;6.754;2023-03-20T05:22:48;101450.84;;;8.21;100.00
28004;BME280;15330;51.234;6.754;2023-03-20T05:25:13;101455.16;;;8.13;100.00
28004;BME280;15330;51.234;6.754;2023-03-20T05:27:39;101450.34;;;8.27;100.00
28004;BME280;15330;51.234;6.754;2023-03-20T05:30:05;101456.78;;;8.25;100.00
28004;BME280;15330;51.234;6.754;2023-03-20T05:32:30;101452.63;;;8.32;100.00
28004;BME280;15330;51.234;6.754;2023-03-20T05:34:56;101461.34;;;8.34;100.00
28004;BME280;15330;51.234;6.754;2023-03-20T05:37:21;101458.84;;;8.00;100.00
28004;BME280;15330;51.234;6.754;2023-03-20T05:39:46;101457.69;;;8.14;100.00
28004;BME280;15330;51.234;6.754;2023-03-20T05:42:12;101452.63;;;8.11;100.00
28004;BME280;15330;51.234;6.754;2023-03-20T05:44:37;101456.59;;;7.96;100.00
28004;BME280;15330;51.234;6.754;2023-03-20T05:47:02;101464.47;;;8.39;100.00
28004;BME280;15330;51.234;6.754;2023-03-20T05:49:28;101460.53;;;8.22;100.00
28004;BME280;15330;51.234;6.754;2023-03-20T05:51:53;101462.59;;;8.09;100.00
28004;BME280;15330;51.234;6.754;2023-03-20T05:54:18;101458.78;;;8.11;100.00
28004;BME280;15330;51.234;6.754;2023-03-20T05:56:44;101471.50;;;7.98;100.00
28004;BME280;15330;51.234;6.754;2023-03-20T05:59:10;101457.50;;;8.06;100.00
28004;BME280;15330;51.234;6.754;2023-03-20T06:01:36;101458.66;;;8.13;100.00
28004;BME280;15330;51.234;6.754;2023-03-20T06:04:01;101456.72;;;8.15;100.00
28004;BME280;15330;51.234;6.754;2023-03-20T06:06:27;101453.50;;;8.42;100.00
28004;BME280;15330;51.234;6.754;2023-03-20T06:08:52;101456.59;;;8.77;100.00
28004;BME280;15330;51.234;6.754;2023-03-20T06:11:17;101467.44;;;8.25;100.00
28004;BME280;15330;51.234;6.754;2023-03-20T06:13:43;101458.38;;;7.86;100.00
28004;BME280;15330;51.234;6.754;2023-03-20T06:16:08;101454.91;;;8.16;100.00
28004;BME280;15330;51.234;6.754;2023-03-20T06:18:34;101458.94;;;7.89;100.00
28004;BME280;15330;51.234;6.754;2023-03-20T06:20:59;101463.66;;;8.27;100.00
28004;BME280;15330;51.234;6.754;2023-03-20T06:23:26;101454.84;;;8.06;100.00
28004;BME280;15330;51.234;6.754;2023-03-20T06:25:51;101460.81;;;8.19;100.00
28004;BME280;15330;51.234;6.754;2023-03-20T06:28:17;101463.63;;;8.38;100.00
28004;BME280;15330;51.234;6.754;2023-03-20T06:30:43;101457.34;;;8.49;100.00
28004;BME280;15330;51.234;6.754;2023-03-20T06:33:08;101458.09;;;8.61;100.00
28004;BME280;15330;51.234;6.754;2023-03-20T06:35:34;101462.63;;;8.39;100.00
28004;BME280;15330;51.234;6.754;2023-03-20T06:38:00;101467.81;;;8.41;100.00
28004;BME280;15330;51.234;6.754;2023-03-20T06:40:26;101466.84;;;8.42;100.00
28004;BME280;15330;51.234;6.754;2023-03-20T06:42:53;101468.66;;;8.41;100.00
28004;BME280;15330;51.234;6.754;2023-03-20T06:45:19;101468.19;;;8.57;100.00
28004;BME280;15330;51.234;6.754;2023-03-20T06:47:45;101469.91;;;8.17;100.00
28004;BME280;15330;51.234;6.754;2023-03-20T06:50:14;101482.28;;;8.38;100.00
28004;BME280;15330;51.234;6.754;2023-03-20T06:52:40;101483.88;;;8.51;99.97
28004;BME280;15330;51.234;6.754;2023-03-20T06:55:06;101504.97;;;8.63;98.60
28004;BME280;15330;51.234;6.754;2023-03-20T06:57:32;101503.97;;;8.95;98.17
28004;BME280;15330;51.234;6.754;2023-03-20T06:59:58;101513.97;;;8.93;97.81
28004;BME280;15330;51.234;6.754;2023-03-20T07:02:23;101510.53;;;8.81;97.25
28004;BME280;15330;51.234;6.754;2023-03-20T07:04:49;101510.53;;;8.81;96.77
28004;BME280;15330;51.234;6.754;2023-03-20T07:07:14;101508.84;;;8.80;95.49
28004;BME280;15330;51.234;6.754;2023-03-20T07:09:41;101512.88;;;8.74;96.51
28004;BME280;15330;51.234;6.754;2023-03-20T07:12:10;101514.50;;;8.96;95.89
28004;BME280;15330;51.234;6.754;2023-03-20T07:14:39;101510.97;;;8.86;94.88
28004;BME280;15330;51.234;6.754;2023-03-20T07:17:04;101525.50;;;8.72;95.13
28004;BME280;15330;51.234;6.754;2023-03-20T07:19:30;101523.94;;;8.60;94.73
28004;BME280;15330;51.234;6.754;2023-03-20T07:21:58;101529.47;;;8.48;95.08
28004;BME280;15330;51.234;6.754;2023-03-20T07:24:27;101521.78;;;8.54;94.62
28004;BME280;15330;51.234;6.754;2023-03-20T07:26:53;101526.63;;;8.39;94.99
28004;BME280;15330;51.234;6.754;2023-03-20T07:29:18;101522.66;;;8.34;95.76
28004;BME280;15330;51.234;6.754;2023-03-20T07:31:44;101516.94;;;8.38;95.81
28004;BME280;15330;51.234;6.754;2023-03-20T07:34:12;101522.06;;;8.51;94.61
28004;BME280;15330;51.234;6.754;2023-03-20T07:36:37;101514.06;;;8.30;95.62
28004;BME280;15330;51.234;6.754;2023-03-20T07:39:03;101520.44;;;8.39;95.29
28004;BME280;15330;51.234;6.754;2023-03-20T07:41:29;101529.69;;;8.65;94.56
28004;BME280;15330;51.234;6.754;2023-03-20T07:43:55;101529.00;;;8.73;94.28
28004;BME280;15330;51.234;6.754;2023-03-20T07:46:21;101528.66;;;8.57;94.75
28004;BME280;15330;51.234;6.754;2023-03-20T07:48:46;101528.94;;;8.54;94.78
28004;BME280;15330;51.234;6.754;2023-03-20T07:51:11;101529.84;;;8.73;94.12
28004;BME280;15330;51.234;6.754;2023-03-20T07:53:37;101541.91;;;8.68;94.64
28004;BME280;15330;51.234;6.754;2023-03-20T07:56:02;101534.19;;;8.65;94.02
28004;BME280;15330;51.234;6.754;2023-03-20T07:58:28;101538.84;;;8.72;93.38
28004;BME280;15330;51.234;6.754;2023-03-20T08:00:55;101546.59;;;8.75;94.00
28004;BME280;15330;51.234;6.754;2023-03-20T08:03:21;101533.88;;;8.89;94.18
28004;BME280;15330;51.234;6.754;2023-03-20T08:05:46;101545.38;;;8.89;93.77
28004;BME280;15330;51.234;6.754;2023-03-20T08:08:12;101547.78;;;8.62;93.92
28004;BME280;15330;51.234;6.754;2023-03-20T08:10:37;101546.34;;;8.88;93.36
28004;BME280;15330;51.234;6.754;2023-03-20T08:13:02;101545.13;;;8.92;92.81
28004;BME280;15330;51.234;6.754;2023-03-20T08:15:28;101545.91;;;8.83;92.20
28004;BME280;15330;51.234;6.754;2023-03-20T08:17:53;101544.91;;;9.14;92.21
28004;BME280;15330;51.234;6.754;2023-03-20T08:20:19;101550.78;;;9.08;92.42
28004;BME280;15330;51.234;6.754;2023-03-20T08:22:44;101542.16;;;9.45;90.20
28004;BME280;15330;51.234;6.754;2023-03-20T08:25:09;101548.94;;;9.78;88.86
28004;BME280;15330;51.234;6.754;2023-03-20T08:27:35;101548.97;;;10.07;87.52
28004;BME280;15330;51.234;6.754;2023-03-20T08:30:03;101550.94;;;9.95;87.43
28004;BME280;15330;51.234;6.754;2023-03-20T08:32:29;101551.59;;;10.45;85.22
28004;BME280;15330;51.234;6.754;2023-03-20T08:34:54;101554.84;;;10.29;84.36
28004;BME280;15330;51.234;6.754;2023-03-20T08:37:21;101555.56;;;10.12;83.46
28004;BME280;15330;51.234;6.754;2023-03-20T08:39:46;101555.50;;;10.97;82.24
28004;BME280;15330;51.234;6.754;2023-03-20T08:42:12;101549.31;;;10.97;82.71
28004;BME280;15330;51.234;6.754;2023-03-20T08:44:37;101547.41;;;10.23;84.30
28004;BME280;15330;51.234;6.754;2023-03-20T08:47:03;101549.22;;;10.33;83.93
28004;BME280;15330;51.234;6.754;2023-03-20T08:49:29;101546.69;;;10.02;84.27
28004;BME280;15330;51.234;6.754;2023-03-20T08:51:55;101560.19;;;10.10;84.45
28004;BME280;15330;51.234;6.754;2023-03-20T08:54:20;101547.81;;;9.71;85.54
28004;BME280;15330;51.234;6.754;2023-03-20T08:56:46;101550.91;;;9.66;84.42
28004;BME280;15330;51.234;6.754;2023-03-20T08:59:11;101547.13;;;9.88;84.19
28004;BME280;15330;51.234;6.754;2023-03-20T09:01:37;101554.41;;;9.76;83.19
28004;BME280;15330;51.234;6.754;2023-03-20T09:04:03;101546.41;;;9.67;83.62
28004;BME280;15330;51.234;6.754;2023-03-20T09:06:29;101562.69;;;9.44;83.57
28004;BME280;15330;51.234;6.754;2023-03-20T09:08:55;101556.22;;;9.47;83.17
28004;BME280;15330;51.234;6.754;2023-03-20T09:11:23;101559.63;;;9.87;82.49
28004;BME280;15330;51.234;6.754;2023-03-20T09:13:48;101560.34;;;9.89;82.92
28004;BME280;15330;51.234;6.754;2023-03-20T09:16:14;101556.41;;;9.84;82.89
28004;BME280;15330;51.234;6.754;2023-03-20T09:18:40;101561.31;;;9.60;83.04
28004;BME280;15330;51.234;6.754;2023-03-20T09:21:06;101552.75;;;9.75;82.02
28004;BME280;15330;51.234;6.754;2023-03-20T09:23:31;101544.75;;;9.75;82.04
28004;BME280;15330;51.234;6.754;2023-03-20T09:25:57;101548.66;;;9.90;81.73
28004;BME280;15330;51.234;6.754;2023-03-20T09:28:23;101546.69;;;9.64;81.73
28004;BME280;15330;51.234;6.754;2023-03-20T09:30:48;101557.41;;;9.92;81.53
28004;BME280;15330;51.234;6.754;2023-03-20T09:33:16;101556.09;;;9.58;80.53
28004;BME280;15330;51.234;6.754;2023-03-20T09:35:42;101549.50;;;9.91;80.60
28004;BME280;15330;51.234;6.754;2023-03-20T09:38:08;101555.41;;;10.14;79.42
28004;BME280;15330;51.234;6.754;2023-03-20T09:41:00;101553.19;;;10.19;79.32
28004;BME280;15330;51.234;6.754;2023-03-20T09:43:27;101558.75;;;10.54;78.42
28004;BME280;15330;51.234;6.754;2023-03-20T09:46:23;101552.19;;;10.86;75.58
28004;BME280;15330;51.234;6.754;2023-03-20T09:54:11;101547.81;;;10.38;75.71
28004;BME280;15330;51.234;6.754;2023-03-20T09:56:38;101553.72;;;10.13;75.50
28004;BME280;15330;51.234;6.754;2023-03-20T09:59:05;101544.88;;;10.22;75.74
28004;BME280;15330;51.234;6.754;2023-03-20T10:01:54;101555.84;;;10.28;75.99
28004;BME280;15330;51.234;6.754;2023-03-20T10:04:24;101554.72;;;9.64;75.76
28004;BME280;15330;51.234;6.754;2023-03-20T10:06:50;101556.53;;;9.53;75.99
28004;BME280;15330;51.234;6.754;2023-03-20T10:09:17;101558.09;;;9.75;76.29
28004;BME280;15330;51.234;6.754;2023-03-20T10:17:12;101557.25;;;9.65;76.99
28004;BME280;15330;51.234;6.754;2023-03-20T10:19:43;101554.28;;;9.58;75.86
28004;BME280;15330;51.234;6.754;2023-03-20T10:22:22;101549.94;;;9.77;76.81
28004;BME280;15330;51.234;6.754;2023-03-20T10:27:45;101552.16;;;9.43;76.46
28004;BME280;15330;51.234;6.754;2023-03-20T10:41:34;101543.59;;;9.68;76.68
28004;BME280;15330;51.234;6.754;2023-03-20T10:44:02;101551.59;;;9.49;78.74
28004;BME280;15330;51.234;6.754;2023-03-20T10:46:33;101542.75;;;9.68;78.19
28004;BME280;15330;51.234;6.754;2023-03-20T10:49:12;101548.41;;;9.74;77.58
28004;BME280;15330;51.234;6.754;2023-03-20T10:51:42;101542.47;;;9.71;77.41
28004;BME280;15330;51.234;6.754;2023-03-20T10:54:37;101543.91;;;9.65;77.86
28004;BME280;15330;51.234;6.754;2023-03-20T10:57:10;101539.94;;;9.69;77.67
28004;BME280;15330;51.234;6.754;2023-03-20T10:59:39;101538.81;;;9.72;78.57
28004;BME280;15330;51.234;6.754;2023-03-20T11:02:10;101538.59;;;9.25;80.41
28004;BME280;15330;51.234;6.754;2023-03-20T11:04:36;101537.22;;;9.21;80.92
28004;BME280;15330;51.234;6.754;2023-03-20T11:07:24;101532.78;;;9.01;81.70
28004;BME280;15330;51.234;6.754;2023-03-20T11:10:14;101538.25;;;9.49;81.08
28004;BME280;15330;51.234;6.754;2023-03-20T11:12:46;101524.75;;;9.60;80.49
28004;BME280;15330;51.234;6.754;2023-03-20T11:17:53;101533.44;;;9.33;80.03
28004;BME280;15330;51.234;6.754;2023-03-20T11:20:19;101530.88;;;9.22;80.22
28004;BME280;15330;51.234;6.754;2023-03-20T11:22:46;101503.47;;;9.20;80.20
28004;BME280;15330;51.234;6.754;2023-03-20T11:25:43;101520.38;;;9.30;79.24
28004;BME280;15330;51.234;6.754;2023-03-20T11:28:26;101514.59;;;9.35;78.09
28004;BME280;15330;51.234;6.754;2023-03-20T11:33:41;101523.34;;;9.66;77.70
28004;BME280;15330;51.234;6.754;2023-03-20T11:36:20;101506.78;;;9.62;78.02
28004;BME280;15330;51.234;6.754;2023-03-20T11:38:46;101506.47;;;9.55;77.71
28004;BME280;15330;51.234;6.754;2023-03-20T11:41:23;101513.81;;;9.63;78.80
28004;BME280;15330;51.234;6.754;2023-03-20T11:43:48;101531.91;;;9.50;79.03
28004;BME280;15330;51.234;6.754;2023-03-20T11:46:14;101522.03;;;9.22;79.49
28004;BME280;15330;51.234;6.754;2023-03-20T11:48:42;101518.00;;;9.46;80.33
28004;BME280;15330;51.234;6.754;2023-03-20T11:51:13;101512.38;;;9.59;80.55
28004;BME280;15330;51.234;6.754;2023-03-20T11:56:14;101513.78;;;9.44;81.62
28004;BME280;15330;51.234;6.754;2023-03-20T12:01:38;101523.38;;;9.06;81.98
28004;BME280;15330;51.234;6.754;2023-03-20T12:04:12;101523.53;;;9.14;83.00
28004;BME280;15330;51.234;6.754;2023-03-20T12:06:41;101524.13;;;9.18;82.79
28004;BME280;15330;51.234;6.754;2023-03-20T12:09:26;101527.06;;;9.15;82.85
28004;BME280;15330;51.234;6.754;2023-03-20T12:12:12;101521.91;;;9.23;84.10
28004;BME280;15330;51.234;6.754;2023-03-20T12:14:53;101530.13;;;9.01;84.48
28004;BME280;15330;51.234;6.754;2023-03-20T12:20:04;101511.22;;;9.13;83.21
28004;BME280;15330;51.234;6.754;2023-03-20T12:22:36;101503.38;;;9.50;84.43
28004;BME280;15330;51.234;6.754;2023-03-20T12:25:13;101501.13;;;9.55;83.79
28004;BME280;15330;51.234;6.754;2023-03-20T12:27:45;101504.16;;;9.03;85.43
28004;BME280;15330;51.234;6.754;2023-03-20T12:30:29;101505.13;;;9.02;86.93
28004;BME280;15330;51.234;6.754;2023-03-20T12:35:33;101495.50;;;9.49;87.31
28004;BME280;15330;51.234;6.754;2023-03-20T12:38:00;101495.50;;;9.49;87.87
28004;BME280;15330;51.234;6.754;2023-03-20T12:40:35;101493.81;;;9.57;87.38
28004;BME280;15330;51.234;6.754;2023-03-20T12:43:13;101486.81;;;9.76;87.34
28004;BME280;15330;51.234;6.754;2023-03-20T12:45:58;101484.97;;;9.57;87.23
28004;BME280;15330;51.234;6.754;2023-03-20T12:48:57;101486.97;;;8.96;85.59
28004;BME280;15330;51.234;6.754;2023-03-20T12:54:21;101476.28;;;9.55;83.70
28004;BME280;15330;51.234;6.754;2023-03-20T13:08:25;101452.22;;;9.65;84.99
28004;BME280;15330;51.234;6.754;2023-03-20T13:11:08;101455.88;;;9.64;84.96
28004;BME280;15330;51.234;6.754;2023-03-20T13:16:35;101459.50;;;9.24;85.33
28004;BME280;15330;51.234;6.754;2023-03-20T13:30:03;101439.28;;;9.50;82.83
28004;BME280;15330;51.234;6.754;2023-03-20T13:35:56;101426.63;;;9.62;82.33
28004;BME280;15330;51.234;6.754;2023-03-20T13:38:25;101435.59;;;9.80;81.45
28004;BME280;15330;51.234;6.754;2023-03-20T13:40:58;101433.91;;;9.89;81.47
28004;BME280;15330;51.234;6.754;2023-03-20T13:43:33;101436.16;;;9.84;81.16
28004;BME280;15330;51.234;6.754;2023-03-20T13:46:06;101432.63;;;9.93;80.86
28004;BME280;15330;51.234;6.754;2023-03-20T13:48:35;101440.22;;;9.88;81.26
28004;BME280;15330;51.234;6.754;2023-03-20T14:01:46;101431.78;;;10.02;81.99
28004;BME280;15330;51.234;6.754;2023-03-20T14:04:18;101430.66;;;9.95;81.82
28004;BME280;15330;51.234;6.754;2023-03-20T14:06:56;101429.22;;;10.10;81.84
28004;BME280;15330;51.234;6.754;2023-03-20T14:09:32;101425.06;;;9.69;83.10
28004;BME280;15330;51.234;6.754;2023-03-20T14:12:06;101428.84;;;9.76;83.29
28004;BME280;15330;51.234;6.754;2023-03-20T14:14:48;101426.72;;;9.89;83.17
28004;BME280;15330;51.234;6.754;2023-03-20T14:17:19;101420.66;;;10.07;82.40
28004;BME280;15330;51.234;6.754;2023-03-20T14:19:47;101421.06;;;10.02;83.22
28004;BME280;15330;51.234;6.754;2023-03-20T14:22:16;101404.88;;;10.23;82.55
28004;BME280;15330;51.234;6.754;2023-03-20T14:24:50;101405.00;;;10.12;83.36
28004;BME280;15330;51.234;6.754;2023-03-20T14:27:19;101399.16;;;9.89;83.50
28004;BME280;15330;51.234;6.754;2023-03-20T14:29:45;101408.16;;;9.88;84.08
28004;BME280;15330;51.234;6.754;2023-03-20T14:48:07;101393.75;;;10.08;84.28
28004;BME280;15330;51.234;6.754;2023-03-20T14:53:22;101399.00;;;10.00;84.21
28004;BME280;15330;51.234;6.754;2023-03-20T15:01:06;101387.66;;;10.35;83.41
28004;BME280;15330;51.234;6.754;2023-03-20T15:03:33;101379.78;;;10.34;83.25
28004;BME280;15330;51.234;6.754;2023-03-20T15:06:03;101381.50;;;10.15;83.88
28004;BME280;15330;51.234;6.754;2023-03-20T15:08:34;101383.63;;;10.12;83.61
28004;BME280;15330;51.234;6.754;2023-03-20T15:11:06;101387.56;;;10.27;83.84
28004;BME280;15330;51.234;6.754;2023-03-20T15:13:34;101376.53;;;10.30;83.29
28004;BME280;15330;51.234;6.754;2023-03-20T15:16:12;101377.09;;;10.34;83.16
28004;BME280;15330;51.234;6.754;2023-03-20T15:18:50;101372.78;;;10.13;83.68
28004;BME280;15330;51.234;6.754;2023-03-20T15:21:42;101376.03;;;10.17;83.71
28004;BME280;15330;51.234;6.754;2023-03-20T15:24:06;101374.75;;;10.21;83.27
28004;BME280;15330;51.234;6.754;2023-03-20T15:26:33;101378.81;;;10.25;82.41
28004;BME280;15330;51.234;6.754;2023-03-20T15:29:05;101369.91;;;10.34;82.78
28004;BME280;15330;51.234;6.754;2023-03-20T15:31:34;101378.25;;;10.58;81.27
28004;BME280;15330;51.234;6.754;2023-03-20T15:34:05;101370.69;;;10.72;80.40